sensor_id;sensor_type;location;lat;lon;timestamp;pressure;altitude;pressure_sealevel;temperature;humidity
74327;BME280;62745;51.060;13.786;2024-03-02T00:01:12;99160.25;;;9.11;100.00
74327;BME280;62745;51.060;13.786;2024-03-02T00:03:39;99158.81;;;9.15;100.00
74327;BME280;62745;51.060;13.786;2024-03-02T00:06:06;99158.19;;;9.13;100.00
74327;BME280;62745;51.060;13.786;2024-03-02T00:08:33;99157.78;;;9.16;100.00
74327;BME280;62745;51.060;13.786;2024-03-02T00:11:00;99153.00;;;9.31;100.00
74327;BME280;62745;51.060;13.786;2024-03-02T00:13:29;99149.53;;;9.31;100.00
74327;BME280;62745;51.060;13.786;2024-03-02T00:16:00;99151.34;;;9.37;100.00
74327;BME280;62745;51.060;13.786;2024-03-02T00:18:30;99154.44;;;9.34;100.00
74327;BME280;62745;51.060;13.786;2024-03-02T00:20:58;99157.88;;;9.48;100.00
74327;BME280;62745;51.060;13.786;2024-03-02T00:23:27;99158.47;;;9.50;100.00
74327;BME280;62745;51.060;13.786;2024-03-02T00:25:56;99150.03;;;9.53;100.00
74327;BME280;62745;51.060;13.786;2024-03-02T00:28:27;99145.75;;;9.52;100.00
74327;BME280;62745;51.060;13.786;2024-03-02T00:30:57;99155.25;;;9.41;100.00
74327;BME280;62745;51.060;13.786;2024-03-02T00:33:26;99158.28;;;9.45;100.00
74327;BME280;62745;51.060;13.786;2024-03-02T00:35:54;99147.38;;;9.53;100.00
74327;BME280;62745;51.060;13.786;2024-03-02T00:38:21;99154.00;;;9.44;100.00
74327;BME280;62745;51.060;13.786;2024-03-02T00:40:48;99152.28;;;9.56;100.00
74327;BME280;62745;51.060;13.786;2024-03-02T00:46:03;99156.88;;;9.42;100.00
74327;BME280;62745;51.060;13.786;2024-03-02T00:48:30;99158.50;;;9.43;100.00
74327;BME280;62745;51.060;13.786;2024-03-02T00:50:57;99158.09;;;9.46;100.00
74327;BME280;62745;51.060;13.786;2024-03-02T00:53:26;99154.59;;;9.39;100.00
74327;BME280;62745;51.060;13.786;2024-03-02T00:55:53;99155.84;;;9.43;100.00
74327;BME280;62745;51.060;13.786;2024-03-02T00:58:19;99157.47;;;9.44;100.00
74327;BME280;62745;51.060;13.786;2024-03-02T01:00:46;99155.63;;;9.45;100.00
74327;BME280;62745;51.060;13.786;2024-03-02T01:03:12;99155.81;;;9.50;100.00
74327;BME280;62745;51.060;13.786;2024-03-02T01:05:42;99150.03;;;9.53;100.00
74327;BME280;62745;51.060;13.786;2024-03-02T01:08:09;99157.44;;;9.51;100.00
74327;BME280;62745;51.060;13.786;2024-03-02T01:10:36;99155.38;;;9.53;100.00
74327;BME280;62745;51.060;13.786;2024-03-02T01:13:03;99148.19;;;9.53;100.00
74327;BME280;62745;51.060;13.786;2024-03-02T01:15:29;99143.44;;;9.62;100.00
74327;BME280;62745;51.060;13.786;2024-03-02T01:17:56;99144.09;;;9.57;100.00
74327;BME280;62745;51.060;13.786;2024-03-02T01:20:22;99141.38;;;9.64;100.00
74327;BME280;62745;51.060;13.786;2024-03-02T01:22:49;99130.94;;;9.56;100.00
74327;BME280;62745;51.060;13.786;2024-03-02T01:25:15;99135.25;;;9.57;100.00
74327;BME280;62745;51.060;13.786;2024-03-02T01:27:42;99140.41;;;9.58;100.00
74327;BME280;62745;51.060;13.786;2024-03-02T01:30:09;99144.72;;;9.53;100.00
74327;BME280;62745;51.060;13.786;2024-03-02T01:32:37;99144.75;;;9.46;100.00
74327;BME280;62745;51.060;13.786;2024-03-02T01:35:05;99148.78;;;9.55;100.00
74327;BME280;62745;51.060;13.786;2024-03-02T01:37:32;99147.97;;;9.55;100.00
74327;BME280;62745;51.060;13.786;2024-03-02T01:39:58;99148.63;;;9.50;100.00
74327;BME280;62745;51.060;13.786;2024-03-02T01:42:25;99133.44;;;9.51;100.00
74327;BME280;62745;51.060;13.786;2024-03-02T01:44:51;99144.72;;;9.53;100.00
74327;BME280;62745;51.060;13.786;2024-03-02T01:47:18;99140.81;;;9.55;100.00
74327;BME280;62745;51.060;13.786;2024-03-02T01:49:44;99141.81;;;9.61;100.00
74327;BME280;62745;51.060;13.786;2024-03-02T01:52:11;99142.66;;;9.55;100.00
74327;BME280;62745;51.060;13.786;2024-03-02T01:54:37;99141.84;;;9.54;100.00
74327;BME280;62745;51.060;13.786;2024-03-02T01:57:04;99142.41;;;9.63;100.00
74327;BME280;62745;51.060;13.786;2024-03-02T01:59:30;99139.59;;;9.58;100.00
74327;BME280;62745;51.060;13.786;2024-03-02T02:01:57;99128.50;;;9.54;100.00
74327;BME280;62745;51.060;13.786;2024-03-02T02:04:23;99134.66;;;9.55;100.00
74327;BME280;62745;51.060;13.786;2024-03-02T02:06:53;99132.41;;;9.58;100.00
74327;BME280;62745;51.060;13.786;2024-03-02T02:09:20;99129.09;;;9.63;100.00
74327;BME280;62745;51.060;13.786;2024-03-02T02:11:46;99131.16;;;9.61;100.00
74327;BME280;62745;51.060;13.786;2024-03-02T02:14:13;99127.44;;;9.62;100.00
74327;BME280;62745;51.060;13.786;2024-03-02T02:16:39;99120.00;;;9.71;100.00
74327;BME280;62745;51.060;13.786;2024-03-02T02:19:06;99124.13;;;9.67;100.00
74327;BME280;62745;51.060;13.786;2024-03-02T02:21:32;99121.91;;;9.57;100.00
74327;BME280;62745;51.060;13.786;2024-03-02T02:23:59;99121.53;;;9.53;100.00
74327;BME280;62745;51.060;13.786;2024-03-02T02:26:25;99126.03;;;9.59;100.00
74327;BME280;62745;51.060;13.786;2024-03-02T02:28:52;99124.81;;;9.55;100.00
74327;BME280;62745;51.060;13.786;2024-03-02T02:31:18;99128.06;;;9.64;100.00
74327;BME280;62745;51.060;13.786;2024-03-02T02:33:45;99125.22;;;9.59;100.00
74327;BME280;62745;51.060;13.786;2024-03-02T02:36:11;99134.25;;;9.58;100.00
74327;BME280;62745;51.060;13.786;2024-03-02T02:38:41;99130.72;;;9.64;100.00
74327;BME280;62745;51.060;13.786;2024-03-02T02:41:08;99126.00;;;9.66;100.00
74327;BME280;62745;51.060;13.786;2024-03-02T02:43:35;99128.44;;;9.68;100.00
74327;BME280;62745;51.060;13.786;2024-03-02T02:46:01;99136.22;;;9.69;100.00
74327;BME280;62745;51.060;13.786;2024-03-02T02:48:28;99124.97;;;9.67;100.00
74327;BME280;62745;51.060;13.786;2024-03-02T02:50:54;99130.66;;;9.71;100.00
74327;BME280;62745;51.060;13.786;2024-03-02T02:53:21;99126.16;;;9.71;100.00
74327;BME280;62745;51.060;13.786;2024-03-02T02:55:48;99121.84;;;9.70;100.00
74327;BME280;62745;51.060;13.786;2024-03-02T02:58:14;99126.56;;;9.75;100.00
74327;BME280;62745;51.060;13.786;2024-03-02T03:00:41;99126.75;;;9.73;100.00
74327;BME280;62745;51.060;13.786;2024-03-02T03:03:08;99121.41;;;9.73;100.00
74327;BME280;62745;51.060;13.786;2024-03-02T03:05:34;99119.16;;;9.77;100.00
74327;BME280;62745;51.060;13.786;2024-03-02T03:08:00;99116.72;;;9.75;100.00
74327;BME280;62745;51.060;13.786;2024-03-02T03:10:27;99123.28;;;9.73;100.00
74327;BME280;62745;51.060;13.786;2024-03-02T03:12:54;99121.41;;;9.73;100.00
74327;BME280;62745;51.060;13.786;2024-03-02T03:15:22;99122.66;;;9.71;100.00
74327;BME280;62745;51.060;13.786;2024-03-02T03:17:49;99122.28;;;9.67;100.00
74327;BME280;62745;51.060;13.786;2024-03-02T03:20:17;99123.91;;;9.68;100.00
74327;BME280;62745;51.060;13.786;2024-03-02T03:22:43;99122.06;;;9.69;100.00
74327;BME280;62745;51.060;13.786;2024-03-02T03:25:10;99127.63;;;9.67;100.00
74327;BME280;62745;51.060;13.786;2024-03-02T03:27:37;99128.50;;;9.61;100.00
74327;BME280;62745;51.060;13.786;2024-03-02T03:30:04;99119.88;;;9.59;100.00
74327;BME280;62745;51.060;13.786;2024-03-02T03:32:33;99120.50;;;9.61;100.00
74327;BME280;62745;51.060;13.786;2024-03-02T03:34:59;99117.59;;;9.62;100.00
74327;BME280;62745;51.060;13.786;2024-03-02T03:37:26;99124.97;;;9.67;100.00
74327;BME280;62745;51.060;13.786;2024-03-02T03:39:59;99120.06;;;9.64;100.00
74327;BME280;62745;51.060;13.786;2024-03-02T03:42:27;99114.34;;;9.60;100.00
74327;BME280;62745;51.060;13.786;2024-03-02T03:44:54;99115.53;;;9.64;100.00
74327;BME280;62745;51.060;13.786;2024-03-02T03:47:20;99111.44;;;9.62;100.00
74327;BME280;62745;51.060;13.786;2024-03-02T03:49:46;99108.78;;;9.62;100.00
74327;BME280;62745;51.060;13.786;2024-03-02T03:52:13;99110.84;;;9.60;100.00
74327;BME280;62745;51.060;13.786;2024-03-02T03:54:39;99116.00;;;9.55;100.00
74327;BME280;62745;51.060;13.786;2024-03-02T03:57:06;99103.31;;;9.50;100.00
74327;BME280;62745;51.060;13.786;2024-03-02T03:59:33;99102.09;;;9.46;100.00
74327;BME280;62745;51.060;13.786;2024-03-02T04:01:59;99100.09;;;9.42;100.00
74327;BME280;62745;51.060;13.786;2024-03-02T04:04:26;99104.78;;;9.40;100.00
74327;BME280;62745;51.060;13.786;2024-03-02T04:06:52;99106.03;;;9.37;100.00
74327;BME280;62745;51.060;13.786;2024-03-02T04:09:19;99110.53;;;9.37;100.00
74327;BME280;62745;51.060;13.786;2024-03-02T04:11:45;99119.56;;;9.42;100.00
74327;BME280;62745;51.060;13.786;2024-03-02T04:14:12;99128.78;;;9.40;100.00
74327;BME280;62745;51.060;13.786;2024-03-02T04:16:38;99127.78;;;9.41;100.00
74327;BME280;62745;51.060;13.786;2024-03-02T04:19:05;99134.31;;;9.45;100.00
74327;BME280;62745;51.060;13.786;2024-03-02T04:21:31;99122.00;;;9.44;100.00
74327;BME280;62745;51.060;13.786;2024-03-02T04:23:58;99125.88;;;9.48;100.00
74327;BME280;62745;51.060;13.786;2024-03-02T04:26:26;99133.09;;;9.41;100.00
74327;BME280;62745;51.060;13.786;2024-03-02T04:28:53;99128.59;;;9.41;100.00
74327;BME280;62745;51.060;13.786;2024-03-02T04:31:23;99126.31;;;9.38;100.00
74327;BME280;62745;51.060;13.786;2024-03-02T04:33:49;99113.81;;;9.39;100.00
74327;BME280;62745;51.060;13.786;2024-03-02T04:36:16;99130.22;;;9.42;100.00
74327;BME280;62745;51.060;13.786;2024-03-02T04:38:42;99126.09;;;9.40;100.00
74327;BME280;62745;51.060;13.786;2024-03-02T04:41:09;99148.88;;;9.42;100.00
74327;BME280;62745;51.060;13.786;2024-03-02T04:43:35;99139.84;;;9.43;100.00
74327;BME280;62745;51.060;13.786;2024-03-02T04:46:02;99151.34;;;9.44;100.00
74327;BME280;62745;51.060;13.786;2024-03-02T04:48:28;99153.13;;;9.50;100.00
74327;BME280;62745;51.060;13.786;2024-03-02T04:50:55;99149.69;;;9.43;100.00
74327;BME280;62745;51.060;13.786;2024-03-02T04:53:21;99150.72;;;9.42;100.00
74327;BME280;62745;51.060;13.786;2024-03-02T04:55:48;99151.94;;;9.46;100.00
74327;BME280;62745;51.060;13.786;2024-03-02T04:58:33;99164.22;;;9.47;100.00
74327;BME280;62745;51.060;13.786;2024-03-02T05:00:59;99165.69;;;9.43;100.00
74327;BME280;62745;51.060;13.786;2024-03-02T05:03:26;99170.41;;;9.41;100.00
74327;BME280;62745;51.060;13.786;2024-03-02T05:05:52;99166.28;;;9.45;100.00
74327;BME280;62745;51.060;13.786;2024-03-02T05:08:19;99166.91;;;9.47;100.00
74327;BME280;62745;51.060;13.786;2024-03-02T05:10:45;99175.94;;;9.46;100.00
74327;BME280;62745;51.060;13.786;2024-03-02T05:13:12;99183.53;;;9.42;100.00
74327;BME280;62745;51.060;13.786;2024-03-02T05:15:38;99184.97;;;9.38;100.00
74327;BME280;62745;51.060;13.786;2024-03-02T05:18:05;99189.91;;;9.41;100.00
74327;BME280;62745;51.060;13.786;2024-03-02T05:20:32;99192.56;;;9.41;100.00
74327;BME280;62745;51.060;13.786;2024-03-02T05:22:58;99186.38;;;9.47;100.00
74327;BME280;62745;51.060;13.786;2024-03-02T05:25:24;99197.44;;;9.51;100.00
74327;BME280;62745;51.060;13.786;2024-03-02T05:27:51;99191.53;;;9.42;100.00
74327;BME280;62745;51.060;13.786;2024-03-02T05:30:18;99193.34;;;9.48;100.00
74327;BME280;62745;51.060;13.786;2024-03-02T05:32:44;99193.16;;;9.43;100.00
74327;BME280;62745;51.060;13.786;2024-03-02T05:35:11;99192.53;;;9.48;100.00
74327;BME280;62745;51.060;13.786;2024-03-02T05:37:39;99193.56;;;9.40;100.00
74327;BME280;62745;51.060;13.786;2024-03-02T05:40:06;99197.47;;;9.44;100.00
74327;BME280;62745;51.060;13.786;2024-03-02T05:42:33;99202.38;;;9.47;100.00
74327;BME280;62745;51.060;13.786;2024-03-02T05:45:00;99204.59;;;9.50;100.00
74327;BME280;62745;51.060;13.786;2024-03-02T05:47:27;99210.16;;;9.49;100.00
74327;BME280;62745;51.060;13.786;2024-03-02T05:49:54;99215.47;;;9.49;100.00
74327;BME280;62745;51.060;13.786;2024-03-02T05:52:20;99214.06;;;9.46;100.00
74327;BME280;62745;51.060;13.786;2024-03-02T05:54:47;99219.78;;;9.50;100.00
74327;BME280;62745;51.060;13.786;2024-03-02T05:57:15;99228.56;;;9.57;100.00
74327;BME280;62745;51.060;13.786;2024-03-02T06:00:00;99215.66;;;9.54;100.00
74327;BME280;62745;51.060;13.786;2024-03-02T06:02:26;99238.84;;;9.53;100.00
74327;BME280;62745;51.060;13.786;2024-03-02T06:04:56;99232.09;;;9.51;100.00
74327;BME280;62745;51.060;13.786;2024-03-02T06:07:22;99228.19;;;9.53;100.00
74327;BME280;62745;51.060;13.786;2024-03-02T06:09:49;99235.34;;;9.53;100.00
74327;BME280;62745;51.060;13.786;2024-03-02T06:12:18;99243.56;;;9.51;100.00
74327;BME280;62745;51.060;13.786;2024-03-02T06:14:45;99243.56;;;9.51;100.00
74327;BME280;62745;51.060;13.786;2024-03-02T06:17:11;99255.06;;;9.45;100.00
74327;BME280;62745;51.060;13.786;2024-03-02T06:19:37;99259.16;;;9.48;100.00
74327;BME280;62745;51.060;13.786;2024-03-02T06:22:04;99263.69;;;9.47;100.00
74327;BME280;62745;51.060;13.786;2024-03-02T06:24:31;99262.22;;;9.51;100.00
74327;BME280;62745;51.060;13.786;2024-03-02T06:26:58;99248.47;;;9.54;100.00
74327;BME280;62745;51.060;13.786;2024-03-02T06:29:24;99255.66;;;9.54;100.00
74327;BME280;62745;51.060;13.786;2024-03-02T06:31:51;99256.91;;;9.58;100.00
74327;BME280;62745;51.060;13.786;2024-03-02T06:34:20;99252.34;;;9.65;100.00
74327;BME280;62745;51.060;13.786;2024-03-02T06:36:46;99250.91;;;9.62;100.00
74327;BME280;62745;51.060;13.786;2024-03-02T06:39:14;99257.72;;;9.58;100.00
74327;BME280;62745;51.060;13.786;2024-03-02T06:41:40;99262.84;;;9.60;100.00
74327;BME280;62745;51.060;13.786;2024-03-02T06:44:08;99268.38;;;9.58;100.00
74327;BME280;62745;51.060;13.786;2024-03-02T06:46:35;99259.56;;;9.58;100.00
74327;BME280;62745;51.060;13.786;2024-03-02T06:49:01;99262.84;;;9.60;100.00
74327;BME280;62745;51.060;13.786;2024-03-02T06:51:29;99274.75;;;9.57;100.00
74327;BME280;62745;51.060;13.786;2024-03-02T06:53:55;99284.38;;;9.58;100.00
74327;BME280;62745;51.060;13.786;2024-03-02T06:56:22;99285.59;;;9.56;100.00
74327;BME280;62745;51.060;13.786;2024-03-02T06:58:48;99289.88;;;9.57;100.00
74327;BME280;62745;51.060;13.786;2024-03-02T07:01:15;99290.75;;;9.57;100.00
74327;BME280;62745;51.060;13.786;2024-03-02T07:03:42;99296.69;;;9.59;100.00
74327;BME280;62745;51.060;13.786;2024-03-02T07:06:09;99296.47;;;9.61;100.00
74327;BME280;62745;51.060;13.786;2024-03-02T07:08:36;99299.34;;;9.59;100.00
74327;BME280;62745;51.060;13.786;2024-03-02T07:11:02;99303.44;;;9.62;100.00
74327;BME280;62745;51.060;13.786;2024-03-02T07:13:29;99305.88;;;9.63;100.00
74327;BME280;62745;51.060;13.786;2024-03-02T07:15:55;99301.78;;;9.61;100.00
74327;BME280;62745;51.060;13.786;2024-03-02T07:18:37;99310.81;;;9.60;100.00
74327;BME280;62745;51.060;13.786;2024-03-02T07:21:08;99303.44;;;9.62;100.00
74327;BME280;62745;51.060;13.786;2024-03-02T07:23:34;99311.22;;;9.63;100.00
74327;BME280;62745;51.060;13.786;2024-03-02T07:26:00;99305.28;;;9.61;100.00
74327;BME280;62745;51.060;13.786;2024-03-02T07:28:30;99311.19;;;9.70;100.00
74327;BME280;62745;51.060;13.786;2024-03-02T07:31:02;99307.91;;;9.75;100.00
74327;BME280;62745;51.060;13.786;2024-03-02T07:33:29;99311.81;;;9.79;100.00
74327;BME280;62745;51.060;13.786;2024-03-02T07:35:56;99316.09;;;9.80;100.00
74327;BME280;62745;51.060;13.786;2024-03-02T07:38:23;99313.22;;;9.81;100.00
74327;BME280;62745;51.060;13.786;2024-03-02T07:40:49;99317.75;;;9.81;100.00
74327;BME280;62745;51.060;13.786;2024-03-02T07:43:20;99317.94;;;9.73;100.00
74327;BME280;62745;51.060;13.786;2024-03-02T07:45:47;99320.84;;;9.78;100.00
74327;BME280;62745;51.060;13.786;2024-03-02T07:48:14;99323.72;;;9.76;100.00
74327;BME280;62745;51.060;13.786;2024-03-02T07:50:41;99328.81;;;9.84;100.00
74327;BME280;62745;51.060;13.786;2024-03-02T07:53:08;99333.09;;;9.85;100.00
74327;BME280;62745;51.060;13.786;2024-03-02T07:55:34;99334.13;;;9.84;100.00
74327;BME280;62745;51.060;13.786;2024-03-02T07:58:01;99338.44;;;9.85;100.00
74327;BME280;62745;51.060;13.786;2024-03-02T08:00:28;99343.56;;;9.87;100.00
74327;BME280;62745;51.060;13.786;2024-03-02T08:02:55;99346.63;;;9.90;100.00
74327;BME280;62745;51.060;13.786;2024-03-02T08:05:22;99351.31;;;10.02;100.00
74327;BME280;62745;51.060;13.786;2024-03-02T08:07:49;99344.34;;;10.01;100.00
74327;BME280;62745;51.060;13.786;2024-03-02T08:10:19;99352.59;;;9.92;100.00
74327;BME280;62745;51.060;13.786;2024-03-02T08:12:46;99340.28;;;9.91;100.00
74327;BME280;62745;51.060;13.786;2024-03-02T08:15:12;99364.09;;;9.93;100.00
74327;BME280;62745;51.060;13.786;2024-03-02T08:17:40;99354.00;;;10.02;100.00
74327;BME280;62745;51.060;13.786;2024-03-02T08:20:14;99352.13;;;10.02;100.00
74327;BME280;62745;51.060;13.786;2024-03-02T08:22:41;99362.41;;;9.99;100.00
74327;BME280;62745;51.060;13.786;2024-03-02T08:25:08;99361.81;;;9.97;100.00
74327;BME280;62745;51.060;13.786;2024-03-02T08:27:34;99364.22;;;10.05;100.00
74327;BME280;62745;51.060;13.786;2024-03-02T08:30:01;99365.06;;;10.05;100.00
74327;BME280;62745;51.060;13.786;2024-03-02T08:32:33;99360.13;;;10.02;100.00
74327;BME280;62745;51.060;13.786;2024-03-02T08:34:59;99367.31;;;10.08;100.00
74327;BME280;62745;51.060;13.786;2024-03-02T08:37:26;99371.63;;;10.03;100.00
74327;BME280;62745;51.060;13.786;2024-03-02T08:39:53;99378.59;;;10.04;100.00
74327;BME280;62745;51.060;13.786;2024-03-02T08:42:19;99380.03;;;10.06;100.00
74327;BME280;62745;51.060;13.786;2024-03-02T08:44:46;99379.00;;;10.07;100.00
74327;BME280;62745;51.060;13.786;2024-03-02T08:47:12;99378.16;;;10.20;100.00
74327;BME280;62745;51.060;13.786;2024-03-02T08:49:39;99379.59;;;10.22;100.00
74327;BME280;62745;51.060;13.786;2024-03-02T08:52:06;99368.44;;;10.39;100.00
74327;BME280;62745;51.060;13.786;2024-03-02T08:54:32;99372.97;;;10.38;100.00
74327;BME280;62745;51.060;13.786;2024-03-02T08:57:00;99370.88;;;10.47;100.00
74327;BME280;62745;51.060;13.786;2024-03-02T08:59:27;99369.19;;;10.52;100.00
74327;BME280;62745;51.060;13.786;2024-03-02T09:01:54;99362.59;;;10.62;100.00
74327;BME280;62745;51.060;13.786;2024-03-02T09:04:20;99360.47;;;10.77;100.00
74327;BME280;62745;51.060;13.786;2024-03-02T09:06:51;99359.16;;;10.86;100.00
74327;BME280;62745;51.060;13.786;2024-03-02T09:09:18;99368.28;;;11.03;100.00
74327;BME280;62745;51.060;13.786;2024-03-02T09:11:46;99368.72;;;11.25;100.00
74327;BME280;62745;51.060;13.786;2024-03-02T09:14:13;99366.16;;;11.37;100.00
74327;BME280;62745;51.060;13.786;2024-03-02T09:16:42;99367.13;;;11.67;100.00
74327;BME280;62745;51.060;13.786;2024-03-02T09:19:08;99368.44;;;11.58;100.00
74327;BME280;62745;51.060;13.786;2024-03-02T09:21:36;99372.09;;;11.64;100.00
74327;BME280;62745;51.060;13.786;2024-03-02T09:24:03;99370.34;;;11.76;100.00
74327;BME280;62745;51.060;13.786;2024-03-02T09:26:30;99379.28;;;11.88;100.00
74327;BME280;62745;51.060;13.786;2024-03-02T09:28:57;99379.88;;;12.09;100.00
74327;BME280;62745;51.060;13.786;2024-03-02T09:31:23;99381.09;;;12.13;100.00
74327;BME280;62745;51.060;13.786;2024-03-02T09:33:50;99385.78;;;11.99;99.10
74327;BME280;62745;51.060;13.786;2024-03-02T09:36:20;99383.38;;;12.09;100.00
74327;BME280;62745;51.060;13.786;2024-03-02T09:38:47;99390.41;;;12.10;100.00
74327;BME280;62745;51.060;13.786;2024-03-02T09:41:14;99395.56;;;12.05;98.74
74327;BME280;62745;51.060;13.786;2024-03-02T09:43:41;99394.91;;;11.91;99.23
74327;BME280;62745;51.060;13.786;2024-03-02T09:46:11;99393.78;;;11.81;100.00
74327;BME280;62745;51.060;13.786;2024-03-02T09:48:38;99397.78;;;11.90;100.00
74327;BME280;62745;51.060;13.786;2024-03-02T09:51:05;99390.75;;;11.70;100.00
74327;BME280;62745;51.060;13.786;2024-03-02T09:53:33;99389.78;;;11.65;100.00
74327;BME280;62745;51.060;13.786;2024-03-02T09:56:00;99395.69;;;11.49;100.00
74327;BME280;62745;51.060;13.786;2024-03-02T09:58:27;99397.78;;;11.47;100.00
74327;BME280;62745;51.060;13.786;2024-03-02T10:00:53;99395.56;;;11.37;100.00
74327;BME280;62745;51.060;13.786;2024-03-02T10:03:22;99390.50;;;11.29;100.00
74327;BME280;62745;51.060;13.786;2024-03-02T10:05:50;99393.44;;;11.21;100.00
74327;BME280;62745;51.060;13.786;2024-03-02T10:08:16;99389.91;;;11.27;100.00
74327;BME280;62745;51.060;13.786;2024-03-02T10:10:43;99385.19;;;11.22;100.00
74327;BME280;62745;51.060;13.786;2024-03-02T10:13:11;99382.50;;;11.29;100.00
74327;BME280;62745;51.060;13.786;2024-03-02T10:15:39;99373.44;;;11.30;100.00
74327;BME280;62745;51.060;13.786;2024-03-02T10:18:10;99370.91;;;11.35;100.00
74327;BME280;62745;51.060;13.786;2024-03-02T10:20:39;99377.28;;;11.59;100.00
74327;BME280;62745;51.060;13.786;2024-03-02T10:23:13;99375.06;;;11.74;100.00
74327;BME280;62745;51.060;13.786;2024-03-02T10:25:41;99375.13;;;11.92;100.00
74327;BME280;62745;51.060;13.786;2024-03-02T10:28:19;99367.94;;;11.93;99.73
74327;BME280;62745;51.060;13.786;2024-03-02T10:30:47;99363.09;;;12.01;98.76
74327;BME280;62745;51.060;13.786;2024-03-02T10:33:14;99368.88;;;12.17;96.71
74327;BME280;62745;51.060;13.786;2024-03-02T10:35:41;99364.50;;;12.22;97.07
74327;BME280;62745;51.060;13.786;2024-03-02T10:38:07;99363.03;;;12.26;96.50
74327;BME280;62745;51.060;13.786;2024-03-02T10:40:34;99359.56;;;12.38;96.87
74327;BME280;62745;51.060;13.786;2024-03-02T10:43:01;99352.41;;;12.50;91.72
74327;BME280;62745;51.060;13.786;2024-03-02T10:45:31;99347.19;;;12.55;92.68
74327;BME280;62745;51.060;13.786;2024-03-02T10:47:58;99351.59;;;12.79;90.39
74327;BME280;62745;51.060;13.786;2024-03-02T10:50:25;99340.44;;;12.94;89.81
74327;BME280;62745;51.060;13.786;2024-03-02T10:52:52;99345.25;;;13.15;88.82
74327;BME280;62745;51.060;13.786;2024-03-02T10:55:18;99334.25;;;13.47;86.41
74327;BME280;62745;51.060;13.786;2024-03-02T11:00:18;99338.66;;;13.41;83.94
74327;BME280;62745;51.060;13.786;2024-03-02T11:02:51;99332.59;;;13.58;82.48
74327;BME280;62745;51.060;13.786;2024-03-02T11:05:26;99333.16;;;13.60;82.08
74327;BME280;62745;51.060;13.786;2024-03-02T11:08:06;99338.81;;;14.22;80.58
74327;BME280;62745;51.060;13.786;2024-03-02T11:11:01;99330.78;;;14.50;78.28
74327;BME280;62745;51.060;13.786;2024-03-02T11:13:34;99329.66;;;14.46;77.24
74327;BME280;62745;51.060;13.786;2024-03-02T11:16:06;99336.69;;;14.64;74.47
74327;BME280;62745;51.060;13.786;2024-03-02T11:18:36;99324.19;;;14.58;76.13
74327;BME280;62745;51.060;13.786;2024-03-02T11:21:03;99333.19;;;14.63;75.39
74327;BME280;62745;51.060;13.786;2024-03-02T11:23:34;99330.47;;;14.35;75.03
74327;BME280;62745;51.060;13.786;2024-03-02T11:26:20;99336.00;;;14.17;76.51
74327;BME280;62745;51.060;13.786;2024-03-02T11:28:47;99340.16;;;13.84;77.82
74327;BME280;62745;51.060;13.786;2024-03-02T11:31:14;99332.59;;;13.81;79.36
74327;BME280;62745;51.060;13.786;2024-03-02T11:33:40;99337.34;;;14.02;77.75
74327;BME280;62745;51.060;13.786;2024-03-02T11:36:08;99340.56;;;14.16;77.71
74327;BME280;62745;51.060;13.786;2024-03-02T11:38:37;99333.63;;;14.32;77.29
74327;BME280;62745;51.060;13.786;2024-03-02T11:41:07;99335.38;;;13.86;75.82
74327;BME280;62745;51.060;13.786;2024-03-02T11:43:38;99326.41;;;13.80;75.83
74327;BME280;62745;51.060;13.786;2024-03-02T11:46:07;99319.34;;;14.03;76.53
74327;BME280;62745;51.060;13.786;2024-03-02T11:48:35;99325.78;;;14.02;74.50
74327;BME280;62745;51.060;13.786;2024-03-02T11:51:03;99319.16;;;13.81;75.45
74327;BME280;62745;51.060;13.786;2024-03-02T11:53:30;99318.59;;;13.67;75.44
74327;BME280;62745;51.060;13.786;2024-03-02T11:56:01;99312.50;;;13.60;76.87
74327;BME280;62745;51.060;13.786;2024-03-02T11:58:28;99323.00;;;13.73;76.79
74327;BME280;62745;51.060;13.786;2024-03-02T12:00:55;99317.97;;;13.89;76.72
74327;BME280;62745;51.060;13.786;2024-03-02T12:03:24;99318.94;;;13.82;76.20
74327;BME280;62745;51.060;13.786;2024-03-02T12:05:53;99321.38;;;13.72;76.56
74327;BME280;62745;51.060;13.786;2024-03-02T12:08:20;99321.50;;;13.66;77.11
74327;BME280;62745;51.060;13.786;2024-03-02T12:11:01;99323.63;;;13.64;77.50
74327;BME280;62745;51.060;13.786;2024-03-02T12:13:30;99316.72;;;13.68;77.82
74327;BME280;62745;51.060;13.786;2024-03-02T12:15:57;99312.06;;;13.63;78.32
74327;BME280;62745;51.060;13.786;2024-03-02T12:18:25;99314.38;;;13.60;77.84
74327;BME280;62745;51.060;13.786;2024-03-02T12:20:52;99306.59;;;13.46;79.41
74327;BME280;62745;51.060;13.786;2024-03-02T12:23:19;99320.34;;;13.50;78.50
74327;BME280;62745;51.060;13.786;2024-03-02T12:25:46;99320.22;;;13.57;77.57
74327;BME280;62745;51.060;13.786;2024-03-02T12:28:13;99315.22;;;13.37;77.95
74327;BME280;62745;51.060;13.786;2024-03-02T12:30:39;99325.25;;;13.41;78.76
74327;BME280;62745;51.060;13.786;2024-03-02T12:33:06;99316.97;;;13.19;79.10
74327;BME280;62745;51.060;13.786;2024-03-02T12:35:32;99312.19;;;13.21;78.28
74327;BME280;62745;51.060;13.786;2024-03-02T12:37:59;99315.53;;;13.17;78.20
74327;BME280;62745;51.060;13.786;2024-03-02T12:40:25;99313.81;;;13.22;77.59
74327;BME280;62745;51.060;13.786;2024-03-02T12:42:52;99308.13;;;13.31;76.28
74327;BME280;62745;51.060;13.786;2024-03-02T12:45:18;99309.16;;;13.53;75.55
74327;BME280;62745;51.060;13.786;2024-03-02T12:47:51;99308.00;;;13.61;75.91
74327;BME280;62745;51.060;13.786;2024-03-02T12:50:18;99301.78;;;13.72;74.89
74327;BME280;62745;51.060;13.786;2024-03-02T12:52:51;99297.88;;;13.91;74.45
74327;BME280;62745;51.060;13.786;2024-03-02T12:55:19;99299.28;;;14.34;72.37